createdAt,value
2022-12-26T00:01:25.746Z,177.50
2022-12-26T00:03:54.477Z,186.00
2022-12-26T00:06:26.966Z,221.43
2022-12-26T00:08:56.047Z,195.88
2022-12-26T00:11:25.087Z,248.80
2022-12-26T00:13:55.517Z,248.70
2022-12-26T00:16:24.409Z,182.02
2022-12-26T00:18:52.917Z,154.90
2022-12-26T00:21:21.807Z,177.10
2022-12-26T00:23:51.883Z,185.68
2022-12-26T00:26:21.565Z,185.25
2022-12-26T00:28:49.938Z,161.55
2022-12-26T00:31:20.939Z,146.52
2022-12-26T00:33:49.785Z,169.77
2022-12-26T00:36:19.847Z,135.18
2022-12-26T00:38:48.571Z,109.25
2022-12-26T00:41:19.281Z,155.88
2022-12-26T00:43:47.567Z,133.80
2022-12-26T00:46:15.783Z,157.77
2022-12-26T00:48:44.053Z,225.27
2022-12-26T00:51:12.323Z,244.85
2022-12-26T00:53:40.992Z,165.32
2022-12-26T00:56:09.291Z,219.93
2022-12-26T00:58:38.960Z,218.40
2022-12-26T01:01:08.912Z,239.85
2022-12-26T01:03:37.117Z,190.68
2022-12-26T01:06:06.051Z,184.95
2022-12-26T01:08:34.236Z,162.73
2022-12-26T01:11:05.595Z,205.32
2022-12-26T01:13:33.869Z,264.80
2022-12-26T01:16:03.816Z,348.42
2022-12-26T01:18:31.964Z,293.33
2022-12-26T01:21:01.146Z,283.45
2022-12-26T01:23:29.709Z,319.00
2022-12-26T01:26:17.793Z,319.25
2022-12-26T01:28:45.924Z,305.55
2022-12-26T01:31:15.473Z,284.88
2022-12-26T01:33:43.559Z,273.48
2022-12-26T01:36:12.411Z,214.82
2022-12-26T01:38:40.534Z,217.75
2022-12-26T01:41:19.631Z,173.48
2022-12-26T01:43:57.641Z,163.20
2022-12-26T01:46:32.201Z,178.85
2022-12-26T01:49:03.119Z,203.43
2022-12-26T01:51:35.147Z,205.00
2022-12-26T01:54:39.735Z,237.73
2022-12-26T01:56:54.551Z,197.27
2022-12-26T01:59:26.223Z,181.52
2022-12-26T02:01:56.684Z,224.65
2022-12-26T02:04:47.885Z,197.38
2022-12-26T02:07:15.945Z,231.13
2022-12-26T02:09:45.575Z,163.85
2022-12-26T02:12:35.769Z,164.63
2022-12-26T02:15:09.778Z,167.80
2022-12-26T02:17:40.576Z,108.78
2022-12-26T02:20:18.285Z,103.15
2022-12-26T02:23:19.222Z,99.80
2022-12-26T02:26:29.166Z,89.40
2022-12-26T02:29:25.855Z,86.68
2022-12-26T02:32:04.839Z,67.90
2022-12-26T02:34:46.043Z,58.15
2022-12-26T02:37:25.636Z,62.75
2022-12-26T02:40:13.257Z,78.80
2022-12-26T02:42:55.178Z,62.47
2022-12-26T02:45:48.051Z,62.00
2022-12-26T02:48:25.153Z,61.08
2022-12-26T02:51:23.117Z,66.13
2022-12-26T02:54:18.914Z,55.85
2022-12-26T02:57:10.114Z,68.18
2022-12-26T03:00:04.955Z,60.50
2022-12-26T03:02:56.230Z,69.03
2022-12-26T03:05:48.621Z,70.90
2022-12-26T03:08:41.383Z,71.43
2022-12-26T03:11:27.201Z,79.25
2022-12-26T03:14:00.839Z,51.28
2022-12-26T03:16:48.218Z,44.25
2022-12-26T03:19:16.783Z,47.72
2022-12-26T03:21:48.448Z,42.88
2022-12-26T03:24:18.227Z,38.38
2022-12-26T03:26:51.954Z,37.03
2022-12-26T03:29:39.616Z,34.88
2022-12-26T03:32:12.031Z,33.47
2022-12-26T03:34:43.197Z,36.58
2022-12-26T03:37:47.445Z,33.67
2022-12-26T03:40:43.249Z,36.05
2022-12-26T03:43:39.531Z,35.33
2022-12-26T03:46:36.073Z,37.85
2022-12-26T03:49:27.995Z,42.88
2022-12-26T03:52:19.061Z,33.63
2022-12-26T03:55:16.154Z,36.40
2022-12-26T03:58:07.020Z,33.75
2022-12-26T04:00:54.501Z,34.88
2022-12-26T04:03:42.200Z,35.38
2022-12-26T04:06:36.302Z,33.00
2022-12-26T04:09:28.759Z,35.13
2022-12-26T04:12:19.933Z,37.08
2022-12-26T04:15:10.155Z,37.67
2022-12-26T04:17:59.916Z,38.90
2022-12-26T04:20:34.091Z,34.10
2022-12-26T04:23:24.700Z,37.63
2022-12-26T04:26:17.965Z,35.78
2022-12-26T04:29:05.064Z,44.28
2022-12-26T04:31:53.467Z,40.58
2022-12-26T04:34:44.512Z,40.15
2022-12-26T04:37:36.352Z,40.13
2022-12-26T04:40:23.099Z,43.22
2022-12-26T04:43:47.588Z,38.90
2022-12-26T04:45:58.409Z,35.72
2022-12-26T04:48:44.347Z,40.10
2022-12-26T04:51:12.421Z,44.33
2022-12-26T04:53:40.463Z,37.42
2022-12-26T04:56:09.766Z,44.33
2022-12-26T04:58:37.865Z,42.70
2022-12-26T05:01:21.219Z,44.08
2022-12-26T05:04:06.573Z,42.25
2022-12-26T05:06:51.836Z,44.00
2022-12-26T05:09:36.211Z,38.03
2022-12-26T05:12:05.140Z,44.95
2022-12-26T05:14:35.876Z,46.17
2022-12-26T05:17:23.615Z,47.13
2022-12-26T05:20:08.959Z,44.65
2022-12-26T05:22:58.544Z,47.40
2022-12-26T05:25:47.520Z,49.80
2022-12-26T05:28:34.201Z,51.03
2022-12-26T05:31:03.345Z,52.72
2022-12-26T05:33:50.768Z,53.83
2022-12-26T05:36:21.574Z,55.70
2022-12-26T05:38:50.198Z,57.08
2022-12-26T05:41:19.713Z,50.38
2022-12-26T05:43:47.997Z,55.42
2022-12-26T05:46:16.471Z,56.17
2022-12-26T05:48:46.186Z,60.08
2022-12-26T05:51:14.726Z,57.55
2022-12-26T05:53:43.015Z,59.35
2022-12-26T05:56:13.425Z,54.20
2022-12-26T05:58:42.146Z,54.63
2022-12-26T06:01:12.348Z,57.25
2022-12-26T06:03:41.747Z,52.78
2022-12-26T06:06:12.039Z,52.25
2022-12-26T06:08:40.854Z,54.65
2022-12-26T06:11:10.829Z,51.83
2022-12-26T06:13:39.756Z,55.25
2022-12-26T06:16:09.419Z,54.42
2022-12-26T06:18:38.132Z,55.92
2022-12-26T06:21:07.427Z,47.83
2022-12-26T06:23:37.794Z,54.35
2022-12-26T06:26:07.305Z,47.45
2022-12-26T06:28:35.920Z,46.08
2022-12-26T06:31:05.106Z,53.17
2022-12-26T06:33:33.445Z,50.80
2022-12-26T06:36:07.358Z,49.53
2022-12-26T06:38:37.831Z,43.17
2022-12-26T06:41:06.942Z,49.58
2022-12-26T06:43:35.301Z,45.63
2022-12-26T06:46:04.890Z,48.72
2022-12-26T06:48:33.982Z,52.13
2022-12-26T06:51:05.014Z,47.58
2022-12-26T06:53:36.459Z,39.42
2022-12-26T06:56:09.023Z,43.97
2022-12-26T06:58:37.554Z,40.80
2022-12-26T07:01:07.415Z,43.83
2022-12-26T07:03:37.208Z,40.83
2022-12-26T07:06:06.959Z,42.30
2022-12-26T07:08:36.717Z,42.53
2022-12-26T07:11:05.604Z,41.67
2022-12-26T07:13:33.972Z,40.17
2022-12-26T07:16:02.338Z,40.00
2022-12-26T07:18:30.639Z,37.72
2022-12-26T07:20:58.963Z,38.65
2022-12-26T07:23:27.267Z,37.70
2022-12-26T07:25:56.996Z,40.90
2022-12-26T07:28:25.293Z,39.15
2022-12-26T07:30:53.915Z,39.13
2022-12-26T07:33:22.584Z,41.03
2022-12-26T07:35:51.047Z,38.67
2022-12-26T07:38:19.316Z,35.05
2022-12-26T07:40:48.039Z,38.50
2022-12-26T07:43:17.649Z,35.90
2022-12-26T07:45:46.162Z,36.63
2022-12-26T07:48:14.536Z,38.25
2022-12-26T07:50:45.608Z,37.20
2022-12-26T07:53:14.146Z,36.20
2022-12-26T07:55:42.441Z,36.90
2022-12-26T07:58:10.821Z,36.33
2022-12-26T08:00:40.476Z,33.03
2022-12-26T08:03:10.939Z,33.03
2022-12-26T08:05:39.895Z,33.00
2022-12-26T08:08:08.255Z,32.97
2022-12-26T08:10:36.511Z,32.28
2022-12-26T08:13:04.902Z,33.95
2022-12-26T08:15:33.983Z,32.42
2022-12-26T08:18:03.703Z,32.88
2022-12-26T08:20:32.076Z,29.55
2022-12-26T08:23:00.659Z,29.15
2022-12-26T08:25:29.230Z,29.15
2022-12-26T08:27:57.569Z,28.10
2022-12-26T08:30:25.984Z,25.92
2022-12-26T08:32:54.380Z,27.98
2022-12-26T08:35:24.154Z,25.67
2022-12-26T08:37:52.430Z,25.35
2022-12-26T08:40:40.054Z,26.83
2022-12-26T08:46:04.706Z,27.48
2022-12-26T08:48:33.728Z,26.15
2022-12-26T08:51:06.223Z,28.40
2022-12-26T08:53:36.125Z,27.38
2022-12-26T08:56:05.901Z,28.30
2022-12-26T08:58:35.421Z,30.83
2022-12-26T09:01:08.651Z,27.75
2022-12-26T09:03:37.162Z,27.40
2022-12-26T09:06:07.496Z,28.95
2022-12-26T09:08:37.289Z,30.25
2022-12-26T09:11:06.817Z,29.63
2022-12-26T09:13:35.842Z,26.70
2022-12-26T09:16:08.927Z,31.15
2022-12-26T09:18:37.711Z,27.92
2022-12-26T09:21:09.719Z,30.05
2022-12-26T09:23:39.386Z,25.77
2022-12-26T09:26:09.846Z,27.83
2022-12-26T09:28:38.473Z,28.98
2022-12-26T09:31:08.570Z,26.38
2022-12-26T09:33:37.787Z,29.48
2022-12-26T09:36:14.297Z,27.85
2022-12-26T09:38:44.065Z,24.10
2022-12-26T09:41:30.441Z,26.90
2022-12-26T09:44:07.056Z,23.67
2022-12-26T09:46:40.054Z,27.20
2022-12-26T09:49:13.657Z,23.88
2022-12-26T09:51:47.350Z,22.13
2022-12-26T09:54:23.241Z,24.10
2022-12-26T09:57:02.416Z,22.42
2022-12-26T09:59:35.667Z,24.17
2022-12-26T10:02:04.188Z,22.95
2022-12-26T10:04:32.547Z,23.42
2022-12-26T10:07:13.708Z,23.33
2022-12-26T10:09:54.198Z,22.33
2022-12-26T10:12:37.167Z,20.88
2022-12-26T10:15:20.088Z,19.73
2022-12-26T10:17:57.333Z,20.40
2022-12-26T10:20:32.737Z,20.48
2022-12-26T10:23:18.832Z,20.00
2022-12-26T10:25:49.620Z,17.55
2022-12-26T10:28:26.837Z,17.33
2022-12-26T10:30:57.472Z,17.33
2022-12-26T10:33:34.666Z,17.60
2022-12-26T10:36:03.786Z,19.40
2022-12-26T10:38:37.379Z,15.60
2022-12-26T10:41:14.178Z,13.68
2022-12-26T10:43:45.095Z,17.08
2022-12-26T10:46:46.084Z,16.17
2022-12-26T10:49:17.225Z,18.50
2022-12-26T10:51:45.819Z,12.23
2022-12-26T10:54:18.521Z,14.57
2022-12-26T10:57:11.996Z,11.75
2022-12-26T10:59:46.181Z,9.48
2022-12-26T11:02:26.738Z,13.73
2022-12-26T11:05:33.469Z,16.20
2022-12-26T11:07:54.994Z,12.07
2022-12-26T11:10:29.280Z,12.68
2022-12-26T11:13:01.250Z,16.67
2022-12-26T11:15:33.646Z,14.02
2022-12-26T11:18:20.819Z,13.40
2022-12-26T11:20:50.035Z,13.52
2022-12-26T11:23:27.794Z,12.75
2022-12-26T11:25:59.227Z,13.40
2022-12-26T11:28:32.339Z,13.95
2022-12-26T11:31:02.527Z,17.13
2022-12-26T11:33:33.981Z,13.35
2022-12-26T11:36:12.965Z,12.35
2022-12-26T11:38:50.518Z,14.93
2022-12-26T11:41:36.661Z,10.15
2022-12-26T11:44:19.322Z,13.88
2022-12-26T11:46:51.136Z,7.70
2022-12-26T11:49:23.979Z,12.00
2022-12-26T11:51:58.699Z,16.73
2022-12-26T11:54:35.184Z,13.70
2022-12-26T11:57:22.229Z,11.63
2022-12-26T11:59:52.882Z,12.13
2022-12-26T12:02:31.360Z,12.98
2022-12-26T12:05:03.833Z,17.15
2022-12-26T12:07:51.325Z,15.02
2022-12-26T12:10:50.735Z,11.32
2022-12-26T12:13:32.688Z,15.13
2022-12-26T12:16:10.190Z,13.15
2022-12-26T12:18:51.415Z,9.80
2022-12-26T12:21:31.990Z,10.68
2022-12-26T12:24:22.703Z,10.80
2022-12-26T12:27:04.981Z,11.18
2022-12-26T12:30:04.011Z,13.40
2022-12-26T12:32:39.051Z,12.88
2022-12-26T12:35:33.317Z,9.15
2022-12-26T12:38:15.662Z,9.77
2022-12-26T12:40:52.925Z,10.18
2022-12-26T12:43:30.752Z,10.90
2022-12-26T12:46:09.734Z,12.82
2022-12-26T12:49:03.550Z,13.07
2022-12-26T12:51:42.262Z,13.50
2022-12-26T12:54:40.049Z,13.77
2022-12-26T12:57:16.908Z,12.43
2022-12-26T12:59:55.729Z,17.17
2022-12-26T13:02:31.789Z,11.45
2022-12-26T13:05:09.529Z,13.73
2022-12-26T13:07:46.889Z,11.93
2022-12-26T13:10:20.656Z,16.42
2022-12-26T13:12:50.325Z,18.25
2022-12-26T13:15:27.500Z,16.52
2022-12-26T13:18:01.788Z,21.13
2022-12-26T13:20:38.058Z,16.92
2022-12-26T13:23:29.928Z,16.38
2022-12-26T13:26:07.332Z,12.13
2022-12-26T13:28:40.941Z,16.70
2022-12-26T13:31:09.082Z,14.48
2022-12-26T13:33:38.612Z,15.90
2022-12-26T13:36:07.965Z,10.85
2022-12-26T13:39:13.275Z,16.50
2022-12-26T13:42:05.572Z,19.90
2022-12-26T13:44:33.961Z,17.20
2022-12-26T13:47:02.109Z,14.82
2022-12-26T13:49:37.133Z,19.35
2022-12-26T13:52:33.770Z,14.73
2022-12-26T13:55:43.963Z,17.13
2022-12-26T13:58:38.480Z,13.55
2022-12-26T14:01:18.670Z,16.73
2022-12-26T14:04:02.848Z,14.82
2022-12-26T14:07:05.039Z,18.45
2022-12-26T14:09:59.543Z,18.55
2022-12-26T14:12:44.507Z,20.58
2022-12-26T14:15:27.027Z,17.23
2022-12-26T14:18:05.182Z,16.27
2022-12-26T14:20:42.550Z,17.08
2022-12-26T14:23:39.573Z,21.52
2022-12-26T14:26:19.191Z,17.13
2022-12-26T14:28:55.678Z,17.15
2022-12-26T14:31:42.067Z,16.77
2022-12-26T14:34:22.442Z,20.73
2022-12-26T14:36:57.772Z,21.35
2022-12-26T14:39:37.055Z,21.98
2022-12-26T14:42:39.531Z,15.55
2022-12-26T14:45:36.659Z,17.38
2022-12-26T14:48:25.184Z,16.25
2022-12-26T14:50:55.402Z,15.35
2022-12-26T14:53:34.880Z,16.92
2022-12-26T14:56:26.711Z,14.60
2022-12-26T14:59:27.787Z,14.98
2022-12-26T15:02:12.031Z,24.30
2022-12-26T15:04:53.924Z,18.08
2022-12-26T15:07:51.978Z,19.10
2022-12-26T15:10:54.030Z,21.42
2022-12-26T15:13:57.570Z,15.75
2022-12-26T15:16:44.081Z,19.40
2022-12-26T15:19:56.368Z,15.10
2022-12-26T15:22:59.523Z,20.83
2022-12-26T15:26:10.711Z,16.35
2022-12-26T15:29:04.936Z,19.67
2022-12-26T15:31:49.249Z,14.68
2022-12-26T15:34:45.847Z,20.00
2022-12-26T15:37:25.673Z,24.73
2022-12-26T15:39:58.664Z,18.35
2022-12-26T15:42:39.775Z,14.13
2022-12-26T15:45:27.986Z,9.52
2022-12-26T15:48:05.675Z,15.50
2022-12-26T15:50:42.553Z,19.05
2022-12-26T15:53:20.489Z,19.23
2022-12-26T15:56:12.012Z,16.05
2022-12-26T15:59:08.971Z,20.65
2022-12-26T16:01:40.827Z,24.10
2022-12-26T16:04:18.569Z,16.45
2022-12-26T16:07:08.224Z,23.20
2022-12-26T16:09:43.605Z,18.13
2022-12-26T16:12:27.529Z,20.10
2022-12-26T16:15:14.631Z,19.37
2022-12-26T16:17:44.011Z,16.80
2022-12-26T16:20:41.902Z,16.33
2022-12-26T16:23:15.639Z,24.92
2022-12-26T16:25:48.310Z,17.50
2022-12-26T16:28:17.841Z,19.93
2022-12-26T16:30:46.063Z,22.00
2022-12-26T16:33:15.632Z,16.67
2022-12-26T16:35:45.431Z,21.17
2022-12-26T16:38:16.390Z,15.57
2022-12-26T16:40:46.126Z,14.83
2022-12-26T16:43:34.580Z,17.37
2022-12-26T16:46:05.886Z,18.80
2022-12-26T16:48:37.162Z,18.83
2022-12-26T16:51:09.304Z,16.83
2022-12-26T16:53:45.374Z,22.00
2022-12-26T16:56:27.677Z,17.27
2022-12-26T16:59:04.577Z,19.83
2022-12-26T17:01:34.708Z,16.20
2022-12-26T17:04:05.549Z,19.57
2022-12-26T17:06:38.116Z,16.17
2022-12-26T17:09:09.748Z,17.33
2022-12-26T17:11:40.476Z,19.13
2022-12-26T17:14:18.739Z,23.23
2022-12-26T17:16:46.846Z,21.20
2022-12-26T17:19:20.135Z,19.47
2022-12-26T17:22:23.859Z,12.60
2022-12-26T17:24:57.719Z,20.97
2022-12-26T17:27:27.649Z,18.83
2022-12-26T17:30:01.050Z,18.80
2022-12-26T17:32:36.450Z,15.53
2022-12-26T17:35:07.692Z,17.87
2022-12-26T17:37:36.352Z,18.17
2022-12-26T17:40:19.669Z,23.03
2022-12-26T17:42:50.272Z,12.50
2022-12-26T17:45:20.130Z,19.30
2022-12-26T17:47:48.717Z,16.07
2022-12-26T17:50:16.812Z,20.90
2022-12-26T17:52:44.946Z,17.80
2022-12-26T17:55:19.848Z,18.97
2022-12-26T17:57:48.657Z,18.23
2022-12-26T18:00:19.275Z,22.93
2022-12-26T18:02:47.551Z,17.07
2022-12-26T18:05:15.849Z,21.37
2022-12-26T18:07:44.970Z,22.93
2022-12-26T18:10:20.563Z,19.17
2022-12-26T18:12:49.248Z,22.23
2022-12-26T18:15:17.783Z,16.67
2022-12-26T18:17:46.963Z,16.87
2022-12-26T18:20:18.194Z,17.10
2022-12-26T18:22:47.668Z,17.53
2022-12-26T18:25:19.086Z,17.83
2022-12-26T18:27:47.725Z,19.70
2022-12-26T18:30:18.189Z,21.80
2022-12-26T18:32:47.494Z,18.83
2022-12-26T18:35:15.890Z,18.60
2022-12-26T18:37:47.919Z,16.47
2022-12-26T18:40:28.791Z,21.50
2022-12-26T18:42:57.166Z,16.23
2022-12-26T18:45:25.925Z,18.80
2022-12-26T18:47:54.106Z,18.70
2022-12-26T18:50:22.257Z,14.97
2022-12-26T18:52:53.729Z,13.13
2022-12-26T18:55:25.368Z,16.07
2022-12-26T18:57:54.212Z,24.03
2022-12-26T19:00:23.129Z,19.17
2022-12-26T19:02:52.169Z,18.33
2022-12-26T19:05:22.095Z,21.17
2022-12-26T19:07:50.697Z,17.47
2022-12-26T19:10:20.731Z,20.30
2022-12-26T19:12:50.633Z,19.33
2022-12-26T19:15:18.845Z,22.47
2022-12-26T19:17:47.286Z,14.97
2022-12-26T19:20:20.739Z,15.47
2022-12-26T19:22:50.093Z,15.10
2022-12-26T19:25:19.696Z,16.10
2022-12-26T19:27:50.265Z,23.53
2022-12-26T19:30:19.638Z,15.50
2022-12-26T19:32:48.447Z,20.07
2022-12-26T19:35:17.542Z,19.73
2022-12-26T19:37:45.941Z,16.43
2022-12-26T19:40:21.228Z,14.97
2022-12-26T19:42:54.692Z,14.77
2022-12-26T19:45:23.197Z,17.63
2022-12-26T19:47:51.457Z,18.10
2022-12-26T19:50:19.823Z,16.77
2022-12-26T19:52:48.075Z,15.63
2022-12-26T19:55:16.362Z,14.10
2022-12-26T19:57:44.793Z,22.43
2022-12-26T20:00:15.167Z,17.63
2022-12-26T20:02:43.698Z,15.53
2022-12-26T20:05:12.124Z,19.10
2022-12-26T20:07:40.593Z,15.20
2022-12-26T20:10:09.246Z,16.67
2022-12-26T20:12:37.490Z,16.73
2022-12-26T20:15:06.636Z,17.37
2022-12-26T20:17:36.382Z,16.97
2022-12-26T20:20:05.139Z,15.30
2022-12-26T20:22:33.552Z,17.67
2022-12-26T20:25:01.881Z,12.60
2022-12-26T20:27:30.228Z,13.53
2022-12-26T20:29:58.458Z,17.00
2022-12-26T20:32:26.842Z,19.60
2022-12-26T20:34:56.446Z,16.60
2022-12-26T20:37:24.693Z,12.80
2022-12-26T20:39:53.086Z,18.13
2022-12-26T20:42:21.381Z,12.67
2022-12-26T20:44:49.650Z,17.30
2022-12-26T20:47:18.091Z,20.43
2022-12-26T20:49:46.408Z,16.77
2022-12-26T20:52:16.616Z,14.43
2022-12-26T20:54:46.951Z,14.20
2022-12-26T20:57:15.387Z,19.63
2022-12-26T20:59:43.841Z,12.57
2022-12-26T21:02:13.899Z,14.93
2022-12-26T21:04:42.425Z,15.67
2022-12-26T21:07:10.680Z,15.97
2022-12-26T21:09:45.989Z,13.60
2022-12-26T21:12:15.051Z,14.33
2022-12-26T21:14:43.553Z,17.40
2022-12-26T21:17:11.961Z,17.23
2022-12-26T21:19:40.325Z,16.80
2022-12-26T21:22:08.601Z,17.47
2022-12-26T21:24:37.082Z,17.87
2022-12-26T21:27:06.878Z,17.93
2022-12-26T21:29:36.361Z,16.63
2022-12-26T21:32:06.047Z,11.50
2022-12-26T21:34:35.023Z,17.80
2022-12-26T21:37:20.935Z,14.33
2022-12-26T21:39:50.720Z,23.10
2022-12-26T21:42:20.818Z,16.50
2022-12-26T21:44:49.177Z,13.40
2022-12-26T21:47:17.481Z,14.00
2022-12-26T21:49:45.780Z,17.07
2022-12-26T21:52:14.076Z,18.40
2022-12-26T21:55:00.254Z,18.00
2022-12-26T21:57:30.722Z,19.43
2022-12-26T21:59:59.613Z,19.57
2022-12-26T22:02:47.423Z,16.43
2022-12-26T22:05:16.678Z,16.97
2022-12-26T22:07:45.342Z,14.93
2022-12-26T22:10:34.784Z,13.13
2022-12-26T22:13:05.562Z,14.53
2022-12-26T22:15:51.841Z,15.67
2022-12-26T22:18:20.592Z,15.30
2022-12-26T22:20:49.081Z,13.83
2022-12-26T22:23:17.413Z,14.73
2022-12-26T22:25:45.673Z,16.83
2022-12-26T22:28:20.184Z,18.00
2022-12-26T22:30:51.956Z,13.70
2022-12-26T22:33:21.219Z,13.27
2022-12-26T22:35:49.781Z,11.20
2022-12-26T22:38:18.456Z,18.93
2022-12-26T22:40:55.144Z,16.57
2022-12-26T22:43:26.076Z,12.73
2022-12-26T22:45:55.081Z,18.40
2022-12-26T22:48:24.309Z,19.73
2022-12-26T22:50:55.143Z,22.63
2022-12-26T22:53:27.487Z,17.80
2022-12-26T22:55:59.611Z,17.37
2022-12-26T22:58:30.656Z,21.90
2022-12-26T23:00:59.921Z,17.53
2022-12-26T23:03:28.938Z,25.83
2022-12-26T23:05:58.021Z,16.67
2022-12-26T23:08:29.293Z,17.30
2022-12-26T23:10:59.481Z,13.20
2022-12-26T23:13:30.047Z,15.30
2022-12-26T23:16:03.525Z,12.40
2022-12-26T23:18:54.146Z,14.20
2022-12-26T23:21:42.319Z,12.70
2022-12-26T23:24:14.020Z,16.07
2022-12-26T23:26:44.298Z,22.07
2022-12-26T23:29:32.475Z,15.23
2022-12-26T23:32:01.150Z,13.07
2022-12-26T23:34:29.776Z,21.47
2022-12-26T23:36:58.152Z,15.07
2022-12-26T23:39:26.623Z,12.63
2022-12-26T23:41:54.945Z,14.80
2022-12-26T23:44:24.652Z,13.03
2022-12-26T23:46:53.012Z,11.73
2022-12-26T23:49:21.257Z,13.77
2022-12-26T23:51:49.558Z,15.33
2022-12-26T23:54:17.845Z,10.73
2022-12-26T23:56:46.297Z,12.67
2022-12-26T23:59:14.567Z,14.47
